WetterOnline ( https://www.wetteronline.de )

Wetter aktuell Salzwedel

Aktuelles Wetter: Lüchow (18m)

6-stündlich | Neueste Meldungen
Ortszeit Temperatur Wetter
So, 21.04. 20:00 19.4° C leicht bewölkt
So, 21.04. 14:00 19.8° C wolkenlos
So, 21.04. 8:00 5.3° C leicht bewölkt
So, 21.04. 2:00 4.1° C wolkenlos
Sa, 20.04. 20:00 16.5° C fast wolkenlos
Sa, 20.04. 14:00 18.4° C fast wolkenlos
Sa, 20.04. 8:00 5.1° C wolkenlos
Sa, 20.04. 2:00 6.1° C wolkenlos
Ortszeit Temperatur Wetter
So, 21.04. 21:30 13.7° C wolkenlos
So, 21.04. 21:20 13.7° C wolkenlos
So, 21.04. 21:10 14.2° C wolkenlos
So, 21.04. 21:00 15.1° C leicht bewölkt
So, 21.04. 20:50 15.1° C leicht bewölkt
So, 21.04. 20:40 16.1° C leicht bewölkt
So, 21.04. 20:30 18.1° C wolkig
So, 21.04. 20:00 19.4° C leicht bewölkt
So, 21.04. 19:30 20.5° C leicht bewölkt
So, 21.04. 19:00 20.7° C leicht bewölkt
So, 21.04. 18:30 21.3° C wolkig
Ortszeit Relative Feuchte Sichtweite
So, 21.04. 20:00 24% 70 km
So, 21.04. 14:00 26% 17 km
So, 21.04. 8:00 76% 12 km
So, 21.04. 2:00 85% 6 km
Sa, 20.04. 20:00 37% 40 km
Sa, 20.04. 14:00 29% 12 km
Sa, 20.04. 8:00 68% 21 km
Sa, 20.04. 2:00 64% 50 km
Ortszeit Relative Feuchte Sichtweite
So, 21.04. 21:30 41% 24 km
So, 21.04. 21:20 41% -
So, 21.04. 21:10 39% -
So, 21.04. 21:00 36% 10 km
So, 21.04. 20:50 36% -
So, 21.04. 20:40 32% -
So, 21.04. 20:30 27% 50 km
So, 21.04. 20:00 24% 70 km
So, 21.04. 19:30 23% 40 km
So, 21.04. 19:00 24% 23 km
So, 21.04. 18:30 24% 40 km
Ortszeit Niederschlagsmenge Niederschlagsart
So, 21.04. 20:00 0.0 l/m2 in 12 Std. -
So, 21.04. 14:00 0.0 l/m2 in 6 Std. -
So, 21.04. 8:00 0.0 l/m2 in 12 Std. -
So, 21.04. 2:00 0.0 l/m2 in 6 Std. -
Sa, 20.04. 20:00 0.0 l/m2 in 12 Std. -
Sa, 20.04. 14:00 0.0 l/m2 in 6 Std. -
Sa, 20.04. 8:00 0.0 l/m2 in 12 Std. -
Sa, 20.04. 2:00 0.0 l/m2 in 6 Std. -
Ortszeit Niederschlagsmenge Niederschlagsart
So, 21.04. 21:30 0.0 l/m2 in 1 Std. -
So, 21.04. 21:20 keine Meldung -
So, 21.04. 21:10 keine Meldung -
So, 21.04. 21:00 0.0 l/m2 in 1 Std. -
So, 21.04. 20:50 keine Meldung -
So, 21.04. 20:40 keine Meldung -
So, 21.04. 20:30 0.0 l/m2 in 1 Std. -
So, 21.04. 20:00 0.0 l/m2 in 1 Std. -
So, 21.04. 19:30 0.0 l/m2 in 1 Std. -
So, 21.04. 19:00 0.0 l/m2 in 1 Std. -
So, 21.04. 18:30 0.0 l/m2 in 1 Std. -
Ortszeit Stärke Spitze Richtung
km/h Bft. km/h Grad Sektor
So, 21.04. 20:00 7 2 22 90° O
So, 21.04. 14:00 7 2 22 110° O
So, 21.04. 8:00 7 2 11 30° NO
So, 21.04. 2:00 4 1 14 30° NO
Sa, 20.04. 20:00 11 2 24 50° NO
Sa, 20.04. 14:00 13 3 26 30° NO
Sa, 20.04. 8:00 9 2 13 20° N
Sa, 20.04. 2:00 4 1 25 30° NO
Ortszeit Stärke Spitze Richtung
km/h Bft. km/h Grad Sektor
So, 21.04. 21:30 4 1 7 80° O
So, 21.04. 21:20 4 1 - 80° O
So, 21.04. 21:10 4 1 - 70° O
So, 21.04. 21:00 4 1 11 70° O
So, 21.04. 20:50 4 1 - 70° O
So, 21.04. 20:40 4 1 - 70° O
So, 21.04. 20:30 4 1 11 80° O
So, 21.04. 20:00 7 2 22 90° O
So, 21.04. 19:30 9 2 20 100° O
So, 21.04. 19:00 9 2 19 120° SO
So, 21.04. 18:30 4 1 18 160° S
Ortszeit Untergrenze Bedeckung Gattung
total tief tief mittel hoch
So, 21.04. 20:00 10500 m 8/8 0/8 - - -
So, 21.04. 14:00 - 0/8 0/8 - - -
So, 21.04. 8:00 10500 m 7/8 0/8 - - -
So, 21.04. 2:00 - 0/8 0/8 - - -
Sa, 20.04. 20:00 10500 m 2/8 0/8 - - -
Sa, 20.04. 14:00 7800 m 1/8 0/8 - - -
Sa, 20.04. 8:00 - 0/8 0/8 - - -
Sa, 20.04. 2:00 - 0/8 0/8 - - -
Ortszeit Bedeckungsgrad in Achtel und Wolkenuntergrenze
So, 21.04. 21:30 keine Wolken
So, 21.04. 21:20 keine Wolken
So, 21.04. 21:10 keine Wolken
So, 21.04. 21:00 3(10500m)
So, 21.04. 20:50 3(10500m)
So, 21.04. 20:40 6(10500m)
So, 21.04. 20:30 8(10500m)
So, 21.04. 20:00 8(10500m)
So, 21.04. 19:30 6(10500m)
So, 21.04. 19:00 4(10500m)
So, 21.04. 18:30 8(10500m)
Ortszeit Luftdruck NN (hPa) Tendenz (hPa in 3 Std.)
So, 21.04. 20:00 1020 - 1,4
So, 21.04. 14:00 1023 - 2,1
So, 21.04. 8:00 1027 - 0,8
So, 21.04. 2:00 1028 - 0,8
Sa, 20.04. 20:00 1029 - 0,9
Sa, 20.04. 14:00 1032 - 1,3
Sa, 20.04. 8:00 1033 + 0,1
Sa, 20.04. 2:00 1033 + 0,2
Ortszeit Luftdruck NN (hPa) Tendenz (hPa in 3 Std.)
So, 21.04. 21:30 1020 - 0,3
So, 21.04. 21:20 1020 keine Meldung
So, 21.04. 21:10 1020 keine Meldung
So, 21.04. 21:00 1020 - 0,6
So, 21.04. 20:50 1020 keine Meldung
So, 21.04. 20:40 1020 keine Meldung
So, 21.04. 20:30 1020 - 1,1
So, 21.04. 20:00 1020 - 1,4
So, 21.04. 19:30 1020 - 1,6
So, 21.04. 19:00 1020 - 1,8
So, 21.04. 18:30 1020 - 1,9
Ortszeit Schneehöhe (cm)
So, 21.04. 20:00 0
So, 21.04. 14:00 0
So, 21.04. 8:00 0
So, 21.04. 2:00 0
Sa, 20.04. 20:00 0
Sa, 20.04. 14:00 0
Sa, 20.04. 8:00 0
Sa, 20.04. 2:00 0
Ortszeit Schneehöhe (cm)
So, 21.04. 21:30 0
So, 21.04. 21:20 0
So, 21.04. 21:10 0
So, 21.04. 21:00 0
So, 21.04. 20:50 0
So, 21.04. 20:40 0
So, 21.04. 20:30 0
So, 21.04. 20:00 0
So, 21.04. 19:30 0
So, 21.04. 19:00 0
So, 21.04. 18:30 0
Link zu dieser Seite / Seite empfehlen

Das Wetter in ...